AIRPORT ID: 3CO4

DATE: 2024-07-20 ZULU TIME: 16.55 LOCAL TIME: 10.55


METAR 3CO4 201655Z AUTO 28008KT 10SM 21/10 A3042

ALTIMETER: A3042 Q1030

DENSITY ALT: 9700 Ft

WIND DIRECT: 290

WIND SPEED: 8 Gust

WIND CONDITIONS:

VISIBILTY: 10SM 9999M

TEMPERATURE: 70 F 21 C

DEW POINT: 50 F 10 C

HUMID: 50%

LCL: 3,000-5,000 feet

RADIO CHECK: 0

ADVISARIES: 0

GREETINGS: 0

CONVERSATIONS: 0